Time;durP1;ratioP1;P1;durP2;ratioP2;P2;SDS_P1;SDS_P2;PMS_P1;PMS_P2;Temp;Humidity;BMP_temperature;BMP_pressure;BME280_temperature;BME280_humidity;BME280_pressure;Samples;Min_cycle;Max_cycle;Signal;HPM_P1;HPM_P2
2022/11/23 00:00:14;;;;;;;3.47;1.70;;;;;;;3.61;83.62;94807.47;2099205;28;20048;-59
2022/11/23 00:01:19;;;;;;;4.22;1.42;;;;;;;3.58;83.29;94802.44;2098724;28;20044;-59
2022/11/23 00:02:20;;;;;;;4.03;1.80;;;;;;;3.58;83.10;94808.41;2099044;28;20052;-59
2022/11/23 00:03:21;;;;;;;3.10;1.52;;;;;;;3.57;83.18;94804.19;2099154;28;20052;-59
2022/11/23 00:04:24;;;;;;;6.32;1.73;;;;;;;3.58;82.71;94805.84;2099230;28;20060;-59
2022/11/23 00:05:26;;;;;;;9.35;2.20;;;;;;;3.54;83.35;94794.03;2099088;28;20397;-59
2022/11/23 00:06:27;;;;;;;4.75;2.03;;;;;;;3.60;83.13;94805.81;2099038;28;20400;-58
2022/11/23 00:07:28;;;;;;;3.28;1.70;;;;;;;3.59;82.95;94809.28;2099323;28;20040;-59
2022/11/23 00:08:30;;;;;;;5.78;1.70;;;;;;;3.57;83.10;94806.75;2099120;28;20056;-59
2022/11/23 00:09:31;;;;;;;5.72;1.50;;;;;;;3.57;83.00;94804.19;2098444;28;20056;-59
2022/11/23 00:10:32;;;;;;;8.25;2.10;;;;;;;3.57;82.72;94808.50;2098986;28;20056;-59
2022/11/23 00:11:34;;;;;;;6.30;1.88;;;;;;;3.56;82.94;94815.38;2099014;28;20051;-59
2022/11/23 00:12:35;;;;;;;4.93;1.63;;;;;;;3.37;83.17;94779.31;2099455;28;20048;-59
2022/11/23 00:13:38;;;;;;;5.35;2.00;;;;;;;3.37;82.85;94784.44;2099070;28;20056;-59
2022/11/23 00:14:39;;;;;;;4.82;1.60;;;;;;;3.53;83.39;94813.75;2098471;28;20128;-59
2022/11/23 00:15:40;;;;;;;3.88;1.65;;;;;;;3.50;83.68;94805.31;2099290;28;20060;-59
2022/11/23 00:16:41;;;;;;;7.35;1.80;;;;;;;3.54;83.63;94812.84;2099120;28;20051;-60
2022/11/23 00:17:42;;;;;;;5.50;1.70;;;;;;;3.57;82.69;94805.94;2099025;28;20056;-60
2022/11/23 00:18:43;;;;;;;5.68;1.65;;;;;;;3.38;82.68;94780.97;2099209;28;20400;-61
2022/11/23 00:19:44;;;;;;;3.42;1.80;;;;;;;3.56;82.96;94805.09;2099024;28;20419;-61
2022/11/23 00:20:46;;;;;;;3.72;1.73;;;;;;;3.56;82.84;94805.09;2099123;28;20047;-60
2022/11/23 00:21:47;;;;;;;6.18;1.75;;;;;;;3.55;82.99;94805.97;2099481;28;20048;-60
2022/11/23 00:22:48;;;;;;;5.75;2.10;;;;;;;3.54;82.89;94810.28;2099192;28;20044;-59
2022/11/23 00:23:49;;;;;;;4.45;1.70;;;;;;;3.55;82.92;94811.09;2099072;28;20064;-59
2022/11/23 00:24:50;;;;;;;3.38;1.60;;;;;;;3.54;82.99;94810.28;2099116;28;20056;-59
2022/11/23 00:25:51;;;;;;;6.22;1.83;;;;;;;3.53;82.42;94811.19;2098857;28;20408;-59
2022/11/23 00:26:52;;;;;;;6.35;1.83;;;;;;;3.55;82.94;94813.66;2099072;28;20123;-57
2022/11/23 00:27:53;;;;;;;5.10;1.73;;;;;;;3.55;82.57;94816.25;2099100;28;20048;-57
2022/11/23 00:28:54;;;;;;;6.40;2.00;;;;;;;3.53;83.07;94811.19;2099024;28;20060;-57
2022/11/23 00:29:59;;;;;;;6.78;1.75;;;;;;;3.54;82.72;94809.44;2097692;28;20444;-57
2022/11/23 00:31:01;;;;;;;5.53;1.80;;;;;;;3.53;83.12;94813.75;2098319;28;20049;-57
2022/11/23 00:32:02;;;;;;;4.68;1.80;;;;;;;3.56;82.91;94820.50;2098875;28;20063;-58
2022/11/23 00:33:03;;;;;;;5.43;1.70;;;;;;;3.54;82.95;94817.16;2098964;28;20405;-57
2022/11/23 00:34:05;;;;;;;6.53;2.20;;;;;;;3.56;82.66;94817.94;2098402;28;20067;-57
2022/11/23 00:35:07;;;;;;;5.78;1.77;;;;;;;3.56;82.62;94820.50;2090085;28;20049;-58
2022/11/23 00:36:12;;;;;;;7.20;1.80;;;;;;;3.37;82.60;94779.31;2098066;28;20044;-56
2022/11/23 00:37:13;;;;;;;7.47;1.95;;;;;;;3.54;82.73;94817.97;2097630;28;20052;-59
2022/11/23 00:38:14;;;;;;;6.47;2.00;;;;;;;3.56;82.77;94819.66;2098198;28;20048;-58
2022/11/23 00:39:16;;;;;;;6.20;1.95;;;;;;;3.35;82.84;94782.81;2098874;28;20389;-58
2022/11/23 00:40:17;;;;;;;3.58;1.70;;;;;;;3.56;82.37;94815.38;2098288;28;20049;-58
2022/11/23 00:41:20;;;;;;;5.82;1.85;;;;;;;3.56;82.59;94817.94;2098943;28;20053;-60
2022/11/23 00:42:21;;;;;;;5.95;1.88;;;;;;;3.57;82.60;94819.59;2097295;28;20068;-61
2022/11/23 00:43:22;;;;;;;7.25;1.90;;;;;;;3.59;82.33;94811.84;2089603;28;20440;-61
2022/11/23 00:44:23;;;;;;;7.00;1.73;;;;;;;3.49;82.83;94801.91;2089475;28;20057;-60
2022/11/23 00:45:24;;;;;;;6.25;1.80;;;;;;;3.42;82.20;94786.81;2098038;28;20079;-61
2022/11/23 00:46:27;;;;;;;5.00;1.88;;;;;;;3.41;82.45;94780.84;2097141;28;20436;-61
2022/11/23 00:47:28;;;;;;;4.20;1.40;;;;;;;3.59;82.30;94815.25;2098040;28;20488;-61
2022/11/23 00:48:31;;;;;;;5.22;1.60;;;;;;;3.59;82.33;94812.66;2098894;28;20056;-61
2022/11/23 00:49:33;;;;;;;6.57;1.50;;;;;;;3.58;82.63;94813.56;2098787;28;20396;-62
2022/11/23 00:50:34;;;;;;;3.80;1.25;;;;;;;3.58;82.14;94813.56;2098679;28;20063;-61
2022/11/23 00:51:35;;;;;;;5.93;1.80;;;;;;;3.43;82.12;94791.88;2098753;28;20056;-59
2022/11/23 00:52:36;;;;;;;4.93;1.38;;;;;;;3.39;82.16;94779.22;2098428;28;20044;-59
2022/11/23 00:53:37;;;;;;;5.07;1.73;;;;;;;3.55;82.24;94813.66;2088859;28;20115;-59
2022/11/23 00:54:39;;;;;;;3.78;1.75;;;;;;;3.58;82.34;94810.97;2097402;28;20048;-59
2022/11/23 00:55:50;;;;;;;4.60;1.30;;;;;;;3.60;82.30;94816.06;2097176;28;20508;-59
2022/11/23 00:56:51;;;;;;;5.93;1.65;;;;;;;3.58;82.18;94810.97;2097613;28;20053;-59
2022/11/23 00:57:52;;;;;;;6.53;1.70;;;;;;;3.59;82.34;94816.97;2098041;28;20032;-59
2022/11/23 00:58:54;;;;;;;6.53;1.92;;;;;;;3.55;82.57;94816.25;2097147;28;20055;-59
2022/11/23 00:59:56;;;;;;;4.85;1.55;;;;;;;3.57;82.45;94809.31;2097699;28;20045;-59
2022/11/23 01:01:09;;;;;;;3.38;1.63;;;;;;;3.57;82.17;94821.31;2098240;28;20044;-59
2022/11/23 01:02:10;;;;;;;4.97;1.65;;;;;;;3.58;82.34;94813.56;2097601;28;20079;-59
2022/11/23 01:03:11;;;;;;;4.38;1.33;;;;;;;3.56;82.65;94812.78;2096987;28;20044;-59
2022/11/23 01:04:13;;;;;;;3.72;1.50;;;;;;;3.58;82.23;94812.72;2098592;28;20051;-59
2022/11/23 01:05:14;;;;;;;6.22;1.70;;;;;;;3.58;81.87;94823.00;2098651;28;20055;-59
2022/11/23 01:06:17;;;;;;;2.50;1.17;;;;;;;3.58;82.55;94820.41;2098719;28;20063;-55
2022/11/23 01:07:19;;;;;;;4.72;1.85;;;;;;;3.53;82.53;94810.34;2098112;28;20372;-56
2022/11/23 01:08:20;;;;;;;6.43;1.60;;;;;;;3.58;82.35;94810.16;2098209;28;20052;-55
2022/11/23 01:09:25;;;;;;;5.70;1.70;;;;;;;3.58;82.75;94813.56;2097657;28;20053;-56
2022/11/23 01:10:26;;;;;;;5.82;1.67;;;;;;;3.57;82.51;94811.06;2097882;28;20095;-55
2022/11/23 01:11:28;;;;;;;2.55;1.50;;;;;;;3.58;82.32;94815.28;2097989;28;20049;-62
2022/11/23 01:12:29;;;;;;;4.65;1.63;;;;;;;3.56;82.29;94812.78;2096673;28;20056;-62
2022/11/23 01:13:30;;;;;;;4.78;1.55;;;;;;;3.40;82.50;94776.63;2097680;28;20063;-62
2022/11/23 01:14:31;;;;;;;6.10;1.48;;;;;;;3.60;82.25;94816.06;2098526;28;20048;-59
2022/11/23 01:15:32;;;;;;;4.38;1.45;;;;;;;3.56;82.42;94809.41;2098405;28;20060;-62
2022/11/23 01:16:35;;;;;;;6.35;1.42;;;;;;;3.62;82.21;94807.41;2098047;28;20075;-61
2022/11/23 01:17:36;;;;;;;4.60;1.55;;;;;;;3.61;82.53;94810.88;2089813;28;20065;-61
2022/11/23 01:18:37;;;;;;;7.55;1.40;;;;;;;3.61;81.94;94804.91;2089624;28;20063;-61
2022/11/23 01:19:38;;;;;;;4.88;1.65;;;;;;;3.60;82.10;94810.94;2089451;28;20057;-61
2022/11/23 01:20:40;;;;;;;4.15;1.50;;;;;;;3.62;82.76;94806.59;2089024;28;20064;-61
2022/11/23 01:21:43;;;;;;;5.32;1.42;;;;;;;3.65;82.09;94816.72;2089413;28;20406;-61
2022/11/23 01:22:44;;;;;;;4.13;1.40;;;;;;;3.63;82.26;94811.63;2098001;28;20055;-61
2022/11/23 01:23:45;;;;;;;5.10;1.70;;;;;;;3.64;82.15;94808.19;2098380;28;20051;-61
2022/11/23 01:24:46;;;;;;;5.55;1.23;;;;;;;3.64;81.90;94815.06;2098435;28;20480;-61
2022/11/23 01:25:47;;;;;;;6.13;1.58;;;;;;;3.58;82.41;94805.84;2097866;28;20053;-61
2022/11/23 01:26:51;;;;;;;4.45;1.63;;;;;;;3.60;82.05;94811.75;2097703;28;20074;-62
2022/11/23 01:27:54;;;;;;;4.93;1.63;;;;;;;3.63;82.47;94810.81;2097821;28;20063;-61
2022/11/23 01:28:56;;;;;;;4.07;1.25;;;;;;;3.63;82.48;94819.34;2097781;28;20044;-61
2022/11/23 01:29:58;;;;;;;4.30;1.90;;;;;;;3.59;82.08;94810.09;2088725;28;20463;-61
2022/11/23 01:31:06;;;;;;;4.80;1.75;;;;;;;3.47;82.38;94795.16;2089700;28;20056;-61
2022/11/23 01:32:07;;;;;;;7.93;2.08;;;;;;;3.61;82.58;94818.59;2090064;28;20064;-61
2022/11/23 01:33:08;;;;;;;3.35;1.30;;;;;;;3.61;82.13;94817.72;2089445;28;20051;-61
2022/11/23 01:34:10;;;;;;;5.18;1.27;;;;;;;3.43;82.10;94793.63;2097534;28;20049;-61
2022/11/23 01:35:11;;;;;;;5.93;1.70;;;;;;;3.60;82.23;94814.34;2088713;28;20072;-61
2022/11/23 01:36:14;;;;;;;5.28;1.65;;;;;;;3.42;82.23;94781.66;2089054;28;20049;-55
2022/11/23 01:37:15;;;;;;;7.13;1.98;;;;;;;3.59;82.22;94815.25;2098412;28;20055;-54
2022/11/23 01:38:16;;;;;;;5.22;1.45;;;;;;;3.58;82.29;94817.84;2097960;28;20040;-54
2022/11/23 01:39:17;;;;;;;4.88;1.60;;;;;;;3.55;82.70;94818.81;2097609;28;20053;-54
2022/11/23 01:40:18;;;;;;;5.90;1.77;;;;;;;3.55;82.27;94813.66;2098427;28;20055;-54
2022/11/23 01:41:22;;;;;;;4.43;1.80;;;;;;;3.55;82.60;94818.81;2097928;28;20055;-54
2022/11/23 01:43:02;;;;;;;4.70;1.50;;;;;;;3.30;83.21;94788.13;2097905;28;20059;-54
2022/11/23 01:44:22;;;;;;;5.82;1.73;;;;;;;3.48;82.86;94812.25;2095248;28;20593;-54
2022/11/23 01:45:44;;;;;;;4.85;1.63;;;;;;;3.34;83.13;94799.09;2096915;28;20166;-53
2022/11/23 01:46:45;;;;;;;6.80;1.50;;;;;;;3.45;83.03;94823.47;2098092;28;20049;-59
2022/11/23 01:47:46;;;;;;;4.28;1.60;;;;;;;3.44;83.14;94818.38;2097897;28;20049;-60
2022/11/23 01:48:50;;;;;;;4.43;1.90;;;;;;;3.47;83.03;94825.97;2097744;28;20056;-60
2022/11/23 01:49:51;;;;;;;3.42;1.40;;;;;;;3.43;83.29;94811.59;2098371;28;20044;-59
2022/11/23 01:50:52;;;;;;;2.63;1.48;;;;;;;3.39;83.26;94799.75;2097052;28;20445;-59
2022/11/23 01:51:55;;;;;;;2.92;1.40;;;;;;;3.45;83.58;94817.50;2097678;28;20036;-60
2022/11/23 01:52:56;;;;;;;5.38;1.88;;;;;;;3.35;83.32;94795.66;2096889;28;20059;-60
2022/11/23 01:54:01;;;;;;;7.00;1.60;;;;;;;3.51;83.68;94815.53;2097699;28;20044;-60
2022/11/23 01:55:02;;;;;;;5.72;1.40;;;;;;;3.36;83.45;94802.44;2096734;28;20056;-60
2022/11/23 01:56:04;;;;;;;3.28;1.38;;;;;;;3.51;83.58;94824.97;2081199;28;20041;-60
2022/11/23 01:57:10;;;;;;;3.92;1.10;;;;;;;3.50;83.32;94820.72;2072960;28;20050;-60
2022/11/23 01:58:13;;;;;;;5.63;1.50;;;;;;;3.29;83.35;94795.00;2081677;28;20057;-60
2022/11/23 01:59:15;;;;;;;7.20;1.80;;;;;;;3.45;83.17;94826.03;2090045;28;20049;-59
2022/11/23 02:00:16;;;;;;;4.13;1.48;;;;;;;3.36;83.37;94800.72;2080848;28;20381;-59
2022/11/23 02:01:17;;;;;;;5.05;1.75;;;;;;;3.52;83.29;94827.47;2089540;28;20497;-59
2022/11/23 02:02:18;;;;;;;5.50;1.60;;;;;;;3.44;82.99;94811.53;2096504;28;20064;-59
2022/11/23 02:03:19;;;;;;;4.38;1.40;;;;;;;3.53;82.80;94823.19;2089342;28;20051;-59
2022/11/23 02:04:26;;;;;;;7.88;2.00;;;;;;;3.55;83.08;94831.63;2097677;28;20044;-59
2022/11/23 02:05:35;;;;;;;5.25;1.63;;;;;;;3.53;83.07;94828.31;2097706;28;20036;-60
2022/11/23 02:06:36;;;;;;;6.07;1.60;;;;;;;3.56;82.98;94827.38;2090517;28;20049;-59
2022/11/23 02:07:37;;;;;;;6.63;1.55;;;;;;;3.50;82.57;94826.72;2089362;28;20041;-59
2022/11/23 02:08:38;;;;;;;5.40;1.92;;;;;;;3.52;82.51;94835.16;2089352;28;20061;-59
2022/11/23 02:09:39;;;;;;;4.43;1.50;;;;;;;3.50;82.84;94826.72;2072123;28;20061;-59
2022/11/23 02:10:43;;;;;;;5.90;1.80;;;;;;;3.51;82.26;94833.50;2065153;28;20054;-60
2022/11/23 02:11:45;;;;;;;3.75;1.45;;;;;;;3.23;83.01;94789.25;2081847;28;20060;-58
2022/11/23 02:12:48;;;;;;;3.75;1.30;;;;;;;3.50;83.01;94829.28;2105701;28;20052;-60
2022/11/23 02:13:49;;;;;;;9.65;1.63;;;;;;;3.53;82.85;94833.44;2097028;28;20148;-59
2022/11/23 02:14:50;;;;;;;4.38;1.58;;;;;;;3.53;82.48;94829.16;2073387;28;20054;-59
2022/11/23 02:15:53;;;;;;;4.68;1.50;;;;;;;3.31;82.20;94797.47;2081817;28;20061;-59
2022/11/23 02:16:57;;;;;;;4.75;1.60;;;;;;;3.35;82.21;94800.78;2098290;28;20503;-59
2022/11/23 02:18:00;;;;;;;4.53;1.50;;;;;;;3.54;82.23;94823.09;2080719;28;20078;-59
2022/11/23 02:19:01;;;;;;;5.07;1.50;;;;;;;3.59;81.95;94833.22;2065046;28;20049;-59
2022/11/23 02:20:06;;;;;;;4.63;1.50;;;;;;;3.54;81.64;94833.38;2072993;28;20458;-59
2022/11/23 02:21:07;;;;;;;6.00;1.33;;;;;;;3.56;82.06;94835.91;2073573;28;20053;-59
2022/11/23 02:22:21;;;;;;;4.95;1.35;;;;;;;3.60;82.29;94836.59;2081468;28;20045;-60
2022/11/23 02:23:38;;;;;;;4.13;1.65;;;;;;;3.58;81.50;94839.22;2089128;28;20062;-59
2022/11/23 02:24:42;;;;;;;2.80;1.13;;;;;;;3.50;81.71;94829.28;2092477;28;20535;-59
2022/11/23 02:25:44;;;;;;;3.17;1.33;;;;;;;3.58;81.85;94841.78;2090422;28;20510;-59
2022/11/23 02:26:45;;;;;;;6.10;1.55;;;;;;;3.56;81.72;94838.47;2082927;28;20136;-59
2022/11/23 02:27:47;;;;;;;7.50;1.80;;;;;;;3.61;81.64;94848.53;2074621;28;20053;-59
2022/11/23 02:29:08;;;;;;;4.05;1.40;;;;;;;3.50;81.48;94819.00;2074523;28;20425;-59
2022/11/23 02:30:09;;;;;;;5.32;1.77;;;;;;;3.50;81.21;94818.16;2099550;28;20094;-59
2022/11/23 02:31:10;;;;;;;2.63;1.30;;;;;;;3.49;81.09;94825.00;2091120;28;20045;-60
2022/11/23 02:32:12;;;;;;;6.93;1.67;;;;;;;3.56;81.44;94835.06;2082302;28;20485;-59
2022/11/23 02:33:13;;;;;;;5.50;1.70;;;;;;;3.54;81.71;94840.25;2090786;28;20063;-59
2022/11/23 02:34:15;;;;;;;9.05;1.90;;;;;;;3.59;81.67;94846.03;2091125;28;20052;-59
2022/11/23 02:35:16;;;;;;;2.63;1.17;;;;;;;3.57;82.34;94841.88;2099156;28;20032;-59
2022/11/23 02:36:45;;;;;;;4.68;1.35;;;;;;;3.56;82.08;94838.47;2099123;28;20368;-55
2022/11/23 02:37:47;;;;;;;6.35;2.00;;;;;;;3.56;81.57;94843.59;2099790;28;20045;-54
2022/11/23 02:38:50;;;;;;;3.55;1.33;;;;;;;3.57;82.02;94842.69;2090774;28;20060;-54
2022/11/23 02:39:51;;;;;;;4.90;1.98;;;;;;;3.53;81.43;94839.41;2075407;28;20064;-54
2022/11/23 02:40:53;;;;;;;9.55;1.80;;;;;;;3.57;81.63;94839.28;2082492;28;20496;-54
2022/11/23 02:41:56;;;;;;;6.93;1.55;;;;;;;3.40;81.90;94821.97;2090255;28;20405;-56
2022/11/23 02:42:58;;;;;;;5.70;1.65;;;;;;;3.41;81.57;94821.91;2099113;28;20051;-56
2022/11/23 02:44:01;;;;;;;6.63;1.45;;;;;;;3.53;81.40;94839.41;2099248;28;20055;-56
2022/11/23 02:45:27;;;;;;;4.65;1.55;;;;;;;3.39;81.71;94817.72;2098811;28;20049;-56
2022/11/23 02:46:29;;;;;;;5.13;1.42;;;;;;;3.51;81.94;94842.94;2099363;28;20059;-56
2022/11/23 02:47:30;;;;;;;7.22;1.60;;;;;;;3.53;81.64;94843.72;2090884;28;20041;-56
2022/11/23 02:48:31;;;;;;;6.20;1.42;;;;;;;3.56;82.02;94846.16;2098938;28;20052;-56
2022/11/23 02:49:32;;;;;;;7.35;1.23;;;;;;;3.52;81.66;94845.44;2099240;28;20063;-56
2022/11/23 02:50:33;;;;;;;4.35;1.30;;;;;;;3.53;81.92;94846.28;2099223;28;20059;-56
2022/11/23 02:51:34;;;;;;;6.68;1.73;;;;;;;3.53;81.80;94848.84;2098398;28;20064;-56
2022/11/23 02:52:37;;;;;;;7.95;1.55;;;;;;;3.53;81.98;94847.13;2098770;28;20471;-56
2022/11/23 02:53:38;;;;;;;4.07;1.75;;;;;;;3.35;81.62;94821.31;2099216;28;20052;-56
2022/11/23 02:54:39;;;;;;;7.22;2.10;;;;;;;3.53;81.47;94841.16;2098818;28;20075;-56
2022/11/23 02:55:40;;;;;;;5.72;1.45;;;;;;;3.54;82.24;94847.94;2098764;28;20056;-56
2022/11/23 02:56:41;;;;;;;5.93;1.48;;;;;;;3.51;81.79;94846.34;2099335;28;20056;-61
2022/11/23 02:57:42;;;;;;;3.67;1.35;;;;;;;3.50;82.37;94844.69;2089846;28;20365;-61
2022/11/23 02:58:45;;;;;;;5.03;1.73;;;;;;;3.29;82.18;94814.69;2090832;28;20404;-61
2022/11/23 02:59:46;;;;;;;5.35;1.67;;;;;;;3.47;82.06;94846.50;2082128;28;20057;-61
2022/11/23 03:00:47;;;;;;;4.60;1.50;;;;;;;3.42;82.69;94851.81;2090489;28;20064;-60
2022/11/23 03:01:52;;;;;;;5.72;1.90;;;;;;;3.42;82.30;94850.97;2098950;28;20558;-60
2022/11/23 03:02:53;;;;;;;6.00;1.85;;;;;;;3.43;82.40;94844.97;2098744;28;20052;-60
2022/11/23 03:03:54;;;;;;;7.90;1.77;;;;;;;3.40;82.53;94852.78;2099142;28;20044;-60
2022/11/23 03:04:55;;;;;;;6.40;1.73;;;;;;;3.40;82.86;94845.06;2090894;28;20044;-60
2022/11/23 03:05:56;;;;;;;4.95;1.50;;;;;;;3.39;82.86;94848.53;2090596;28;20056;-60
2022/11/23 03:06:58;;;;;;;3.97;1.27;;;;;;;3.36;83.46;94858.91;2097976;28;20055;-60
2022/11/23 03:07:59;;;;;;;7.50;1.60;;;;;;;3.20;82.96;94823.53;2098678;28;20053;-60
2022/11/23 03:09:00;;;;;;;5.05;1.40;;;;;;;3.36;83.08;94853.78;2099796;28;20475;-59
2022/11/23 03:10:01;;;;;;;6.18;1.90;;;;;;;3.33;83.03;94841.06;2099042;28;20054;-60
2022/11/23 03:11:02;;;;;;;6.20;1.90;;;;;;;3.36;82.84;94849.47;2090632;28;20075;-60
2022/11/23 03:12:05;;;;;;;5.78;1.77;;;;;;;3.35;83.09;94847.81;2090450;28;20480;-60
2022/11/23 03:13:06;;;;;;;7.60;1.90;;;;;;;3.32;83.11;94847.94;2090049;28;20040;-60
2022/11/23 03:14:09;;;;;;;6.53;2.38;;;;;;;3.28;82.84;94847.19;2098967;28;20048;-60
2022/11/23 03:15:20;;;;;;;6.72;1.50;;;;;;;3.29;83.19;94842.91;2099168;28;20056;-60
2022/11/23 03:16:21;;;;;;;6.05;1.45;;;;;;;3.10;83.34;94822.19;2098075;28;20045;-61
2022/11/23 03:17:23;;;;;;;4.93;1.50;;;;;;;3.09;83.54;94810.28;2098845;28;20059;-61
2022/11/23 03:18:24;;;;;;;5.90;1.67;;;;;;;3.11;83.24;94813.63;2098226;28;20421;-61
2022/11/23 03:19:26;;;;;;;4.28;1.80;;;;;;;3.16;83.01;94824.56;2098228;28;20063;-61
2022/11/23 03:20:28;;;;;;;5.60;1.80;;;;;;;3.27;83.11;94840.41;2090595;28;20048;-61
2022/11/23 03:21:29;;;;;;;4.25;1.52;;;;;;;3.08;83.29;94813.75;2090502;28;20056;-54
2022/11/23 03:22:30;;;;;;;7.88;1.60;;;;;;;3.22;83.25;94837.16;2098809;28;20040;-53
2022/11/23 03:23:31;;;;;;;5.70;1.70;;;;;;;3.23;83.98;94846.50;2098018;28;20061;-53
2022/11/23 03:24:35;;;;;;;6.60;2.28;;;;;;;3.23;83.68;94843.94;2098456;28;20060;-54
2022/11/23 03:25:38;;;;;;;7.18;2.45;;;;;;;3.03;83.03;94811.34;2090724;28;20049;-53
2022/11/23 03:26:40;;;;;;;6.35;2.10;;;;;;;3.21;83.86;94839.78;2089947;28;20516;-54
2022/11/23 03:27:47;;;;;;;7.72;1.88;;;;;;;3.19;83.97;94841.56;2091443;28;20045;-54
2022/11/23 03:28:48;;;;;;;4.60;1.60;;;;;;;2.98;83.88;94808.09;2090465;28;20045;-54
2022/11/23 03:29:50;;;;;;;5.32;1.92;;;;;;;3.16;83.94;94841.69;2089925;28;20415;-53
2022/11/23 03:30:54;;;;;;;5.60;2.05;;;;;;;3.13;84.04;94846.91;2090779;28;20045;-53
2022/11/23 03:31:56;;;;;;;6.68;1.50;;;;;;;3.11;83.80;94844.41;2089692;28;20481;-53
2022/11/23 03:32:58;;;;;;;4.28;1.60;;;;;;;3.10;83.71;94840.16;2090544;28;20053;-53
2022/11/23 03:33:59;;;;;;;5.43;1.73;;;;;;;3.12;83.84;94837.56;2098968;28;20044;-53
2022/11/23 03:35:02;;;;;;;8.23;1.90;;;;;;;2.79;83.81;94787.44;2089404;28;20064;-53
2022/11/23 03:36:03;;;;;;;6.30;1.70;;;;;;;3.06;83.83;94836.88;2090048;28;20056;-53
2022/11/23 03:37:09;;;;;;;4.32;1.60;;;;;;;3.04;84.12;94833.53;2098805;28;20051;-53
2022/11/23 03:38:11;;;;;;;3.67;1.73;;;;;;;2.83;84.68;94806.09;2089840;28;20049;-53
2022/11/23 03:39:12;;;;;;;7.88;1.83;;;;;;;2.91;84.52;94816.06;2090182;28;20051;-53
2022/11/23 03:40:31;;;;;;;9.85;2.28;;;;;;;3.03;84.79;94838.72;2098676;28;20067;-53
2022/11/23 03:42:05;;;;;;;7.60;1.92;;;;;;;3.04;84.54;94835.25;2089618;28;20064;-53
2022/11/23 03:43:08;;;;;;;3.40;1.75;;;;;;;2.94;84.42;94816.81;2093792;28;20103;-53
2022/11/23 03:44:09;;;;;;;7.28;2.42;;;;;;;3.06;84.73;94831.75;2089727;28;20385;-53
2022/11/23 03:45:11;;;;;;;7.63;2.10;;;;;;;3.07;84.94;94832.56;2089671;28;20049;-53
2022/11/23 03:46:12;;;;;;;7.78;2.38;;;;;;;3.08;84.67;94836.84;2090505;28;20075;-54
2022/11/23 03:47:13;;;;;;;6.85;1.80;;;;;;;3.08;84.53;94835.09;2098246;28;20067;-54
2022/11/23 03:48:14;;;;;;;7.28;1.92;;;;;;;3.06;84.49;94829.19;2099155;28;20060;-53
2022/11/23 03:49:16;;;;;;;7.28;2.25;;;;;;;2.96;84.67;94816.75;2099368;28;20063;-54
2022/11/23 03:50:17;;;;;;;6.95;2.10;;;;;;;3.10;84.44;94829.91;2097614;28;20060;-53
2022/11/23 03:51:18;;;;;;;3.88;1.77;;;;;;;3.07;84.66;94838.56;2097943;28;20468;-52
2022/11/23 03:52:19;;;;;;;5.63;1.85;;;;;;;3.08;84.73;94831.72;2099253;28;20055;-54
2022/11/23 03:53:21;;;;;;;10.38;2.28;;;;;;;3.10;84.78;94827.34;2097669;28;20052;-55
2022/11/23 03:54:22;;;;;;;4.65;1.95;;;;;;;3.12;84.71;94819.59;2090717;28;20056;-55
2022/11/23 03:55:24;;;;;;;5.88;1.88;;;;;;;2.93;84.82;94794.63;2090424;28;20382;-54
2022/11/23 03:56:26;;;;;;;4.72;1.98;;;;;;;3.11;84.60;94826.47;2089839;28;20056;-55
2022/11/23 03:57:27;;;;;;;4.72;2.03;;;;;;;3.11;84.89;94818.75;2089640;28;20060;-55
2022/11/23 03:58:28;;;;;;;6.60;1.75;;;;;;;3.09;85.13;94820.53;2089623;28;20068;-55
2022/11/23 03:59:30;;;;;;;6.97;2.10;;;;;;;3.12;84.77;94819.59;2089537;28;20053;-55
2022/11/23 04:00:31;;;;;;;9.27;2.05;;;;;;;3.14;84.71;94816.09;2097899;28;20480;-55
2022/11/23 04:01:32;;;;;;;8.63;2.17;;;;;;;3.12;85.24;94823.00;2098048;28;20056;-61
2022/11/23 04:02:38;;;;;;;6.80;1.45;;;;;;;3.15;85.05;94819.47;2090732;28;20064;-61
2022/11/23 04:03:43;;;;;;;6.15;2.00;;;;;;;3.16;85.17;94821.16;2089973;28;20455;-62
2022/11/23 04:04:51;;;;;;;5.03;1.70;;;;;;;2.95;84.95;94785.16;2097818;28;20052;-61
2022/11/23 04:06:18;;;;;;;5.93;1.70;;;;;;;2.96;84.95;94789.38;2098069;28;20055;-60
2022/11/23 04:07:37;;;;;;;5.00;1.80;;;;;;;3.18;85.44;94822.78;2099249;28;20051;-62
2022/11/23 04:08:39;;;;;;;8.02;1.92;;;;;;;3.20;85.33;94827.84;2098329;28;20048;-61
2022/11/23 04:09:45;;;;;;;7.97;2.10;;;;;;;3.18;85.23;94820.22;2090771;28;20049;-61
2022/11/23 04:10:58;;;;;;;7.57;2.03;;;;;;;3.18;84.94;94817.66;2092019;28;20384;-61
2022/11/23 04:12:09;;;;;;;8.15;1.73;;;;;;;3.25;85.03;94825.94;2090905;28;20055;-62
2022/11/23 04:13:12;;;;;;;4.35;1.80;;;;;;;3.24;85.12;94825.13;2090335;28;20045;-61
2022/11/23 04:14:13;;;;;;;5.40;2.20;;;;;;;3.24;85.21;94825.13;2098156;28;20067;-62
2022/11/23 04:15:14;;;;;;;6.75;2.00;;;;;;;3.26;85.30;94814.78;2099128;28;20067;-62
2022/11/23 04:16:16;;;;;;;5.13;2.10;;;;;;;3.17;84.93;94803.13;2098467;28;20130;-60
2022/11/23 04:17:17;;;;;;;5.72;2.03;;;;;;;3.28;84.96;94818.97;2089769;28;20053;-59
2022/11/23 04:18:18;;;;;;;6.47;2.33;;;;;;;3.28;84.81;94810.44;2089478;28;20405;-60
2022/11/23 04:19:20;;;;;;;5.80;2.35;;;;;;;3.29;85.13;94820.66;2089431;28;20424;-60
2022/11/23 04:20:21;;;;;;;6.43;2.00;;;;;;;3.30;84.90;94818.91;2089433;28;20405;-60
2022/11/23 04:21:23;;;;;;;4.32;1.52;;;;;;;3.28;84.87;94818.13;2097494;28;20052;-58
2022/11/23 04:22:24;;;;;;;7.30;2.30;;;;;;;3.30;84.66;94817.19;2098085;28;20059;-57
2022/11/23 04:23:26;;;;;;;8.00;2.30;;;;;;;3.20;84.55;94799.63;2097498;28;20064;-58
2022/11/23 04:24:28;;;;;;;6.07;1.73;;;;;;;3.29;84.61;94823.22;2090010;28;20053;-58
2022/11/23 04:25:32;;;;;;;6.72;1.90;;;;;;;3.28;84.90;94813.81;2097421;28;20044;-58
2022/11/23 04:26:33;;;;;;;4.63;2.08;;;;;;;3.28;84.77;94821.53;2089550;28;20056;-54
2022/11/23 04:27:35;;;;;;;4.78;1.95;;;;;;;3.30;84.90;94818.91;2089314;28;20060;-55
2022/11/23 04:28:37;;;;;;;8.68;2.38;;;;;;;3.30;84.97;94817.19;2089339;28;20075;-55
2022/11/23 04:29:38;;;;;;;6.32;2.00;;;;;;;3.29;84.01;94814.69;2089843;28;20057;-54
2022/11/23 04:30:39;;;;;;;4.10;1.80;;;;;;;3.35;84.96;94821.31;2098001;28;20051;-54
2022/11/23 04:31:41;;;;;;;3.72;1.80;;;;;;;3.28;84.42;94807.88;2098196;28;20040;-54
2022/11/23 04:32:46;;;;;;;5.50;2.05;;;;;;;3.31;84.34;94816.31;2097122;28;20075;-54
2022/11/23 04:33:48;;;;;;;5.88;1.85;;;;;;;3.34;84.85;94820.47;2089256;28;20052;-54
2022/11/23 04:34:51;;;;;;;5.43;2.20;;;;;;;3.35;84.19;94817.00;2090222;28;20056;-54
2022/11/23 04:35:52;;;;;;;5.25;2.00;;;;;;;3.35;83.87;94813.63;2098280;28;20060;-54
2022/11/23 04:36:54;;;;;;;5.68;2.10;;;;;;;3.30;84.76;94812.03;2097912;28;20059;-54
2022/11/23 04:38:01;;;;;;;6.72;2.30;;;;;;;3.37;84.36;94816.94;2097305;28;20044;-54
2022/11/23 04:39:06;;;;;;;6.13;2.42;;;;;;;3.37;84.50;94820.38;2089604;28;20045;-53
2022/11/23 04:40:14;;;;;;;5.18;2.13;;;;;;;3.39;84.43;94826.25;2091071;28;20049;-53
2022/11/23 04:41:22;;;;;;;5.93;1.90;;;;;;;3.37;84.65;94819.50;2098617;28;20400;-61
2022/11/23 04:42:23;;;;;;;6.07;2.13;;;;;;;3.36;84.45;94821.25;2089423;28;20053;-60
2022/11/23 04:43:30;;;;;;;6.80;2.13;;;;;;;3.37;84.33;94819.50;2082210;28;20056;-61
2022/11/23 04:44:31;;;;;;;9.55;2.13;;;;;;;3.34;84.42;94811.94;2089314;28;20051;-61
2022/11/23 04:45:38;;;;;;;6.30;2.30;;;;;;;3.33;85.13;94823.94;2089414;28;20056;-61
2022/11/23 04:46:41;;;;;;;4.75;2.33;;;;;;;3.27;85.07;94819.88;2089819;28;20048;-54
2022/11/23 04:47:46;;;;;;;8.68;2.35;;;;;;;3.23;85.05;94805.47;2089682;28;20055;-53
2022/11/23 04:48:49;;;;;;;7.05;2.13;;;;;;;3.30;84.50;94822.31;2089077;28;20440;-54
2022/11/23 04:49:51;;;;;;;9.02;2.60;;;;;;;3.33;84.68;94825.66;2089960;28;20041;-54
2022/11/23 04:50:53;;;;;;;5.57;2.00;;;;;;;3.34;84.75;94820.47;2089997;28;20043;-53
2022/11/23 04:52:00;;;;;;;6.57;2.40;;;;;;;3.28;85.54;94821.53;2082435;28;20045;-59
2022/11/23 04:53:07;;;;;;;4.82;2.65;;;;;;;3.25;85.12;94818.25;2083082;28;20041;-59
2022/11/23 04:54:14;;;;;;;7.03;2.60;;;;;;;3.24;85.00;94819.16;2089770;28;20532;-59
2022/11/23 04:55:22;;;;;;;5.40;2.15;;;;;;;3.29;85.12;94820.66;2089943;28;20049;-59
2022/11/23 04:56:30;;;;;;;7.88;2.83;;;;;;;3.27;85.10;94817.31;2089966;28;20107;-56
2022/11/23 04:57:31;;;;;;;4.93;2.20;;;;;;;3.28;84.86;94816.38;2098405;28;20048;-56
2022/11/23 04:58:32;;;;;;;6.18;2.75;;;;;;;3.34;84.81;94824.75;2089529;28;20448;-56
2022/11/23 04:59:34;;;;;;;5.57;2.35;;;;;;;3.31;84.71;94821.44;2089152;28;20053;-56
2022/11/23 05:00:35;;;;;;;6.20;2.38;;;;;;;3.29;84.88;94818.09;2098087;28;20056;-55